sensor_id;sensor_type;location;lat;lon;timestamp;P1;durP1;ratioP1;P2;durP2;ratioP2
2021;SDS011;1015;49.756;6.994;2024-02-15T00:00:39;6.20;;;3.80;;
2021;SDS011;1015;49.756;6.994;2024-02-15T00:03:08;6.27;;;3.43;;
2021;SDS011;1015;49.756;6.994;2024-02-15T00:05:38;5.77;;;3.53;;
2021;SDS011;1015;49.756;6.994;2024-02-15T00:08:06;12.37;;;3.67;;
2021;SDS011;1015;49.756;6.994;2024-02-15T00:10:34;9.30;;;3.73;;
2021;SDS011;1015;49.756;6.994;2024-02-15T00:13:02;7.67;;;3.30;;
2021;SDS011;1015;49.756;6.994;2024-02-15T00:15:32;5.27;;;3.10;;
2021;SDS011;1015;49.756;6.994;2024-02-15T00:18:00;7.93;;;3.23;;
2021;SDS011;1015;49.756;6.994;2024-02-15T00:20:28;8.43;;;3.27;;
2021;SDS011;1015;49.756;6.994;2024-02-15T00:22:55;8.83;;;3.63;;
2021;SDS011;1015;49.756;6.994;2024-02-15T00:25:22;7.63;;;3.43;;
2021;SDS011;1015;49.756;6.994;2024-02-15T00:27:51;10.37;;;3.57;;
2021;SDS011;1015;49.756;6.994;2024-02-15T00:30:18;16.27;;;4.23;;
2021;SDS011;1015;49.756;6.994;2024-02-15T00:32:46;4.70;;;3.33;;
2021;SDS011;1015;49.756;6.994;2024-02-15T00:35:13;4.83;;;3.20;;
2021;SDS011;1015;49.756;6.994;2024-02-15T00:37:40;4.53;;;3.53;;
2021;SDS011;1015;49.756;6.994;2024-02-15T00:40:08;5.23;;;3.30;;
2021;SDS011;1015;49.756;6.994;2024-02-15T00:42:35;5.37;;;4.07;;
2021;SDS011;1015;49.756;6.994;2024-02-15T00:45:02;6.53;;;3.80;;
2021;SDS011;1015;49.756;6.994;2024-02-15T00:47:30;7.67;;;3.83;;
2021;SDS011;1015;49.756;6.994;2024-02-15T00:49:59;6.10;;;3.93;;
2021;SDS011;1015;49.756;6.994;2024-02-15T00:52:26;5.70;;;3.60;;
2021;SDS011;1015;49.756;6.994;2024-02-15T00:54:54;8.47;;;4.20;;
2021;SDS011;1015;49.756;6.994;2024-02-15T00:57:21;6.80;;;3.97;;
2021;SDS011;1015;49.756;6.994;2024-02-15T00:59:48;5.53;;;3.77;;
2021;SDS011;1015;49.756;6.994;2024-02-15T01:02:17;6.50;;;4.00;;
2021;SDS011;1015;49.756;6.994;2024-02-15T01:04:44;3.77;;;3.03;;
2021;SDS011;1015;49.756;6.994;2024-02-15T01:07:12;6.43;;;3.50;;
2021;SDS011;1015;49.756;6.994;2024-02-15T01:09:39;6.57;;;3.83;;
2021;SDS011;1015;49.756;6.994;2024-02-15T01:12:06;7.53;;;3.90;;
2021;SDS011;1015;49.756;6.994;2024-02-15T01:14:35;5.40;;;3.80;;
2021;SDS011;1015;49.756;6.994;2024-02-15T01:17:02;6.10;;;3.33;;
2021;SDS011;1015;49.756;6.994;2024-02-15T01:19:29;7.03;;;3.97;;
2021;SDS011;1015;49.756;6.994;2024-02-15T01:21:56;8.63;;;4.03;;
2021;SDS011;1015;49.756;6.994;2024-02-15T01:24:25;6.47;;;3.60;;
2021;SDS011;1015;49.756;6.994;2024-02-15T01:26:52;7.50;;;4.20;;
2021;SDS011;1015;49.756;6.994;2024-02-15T01:29:20;4.00;;;3.60;;
2021;SDS011;1015;49.756;6.994;2024-02-15T01:31:47;5.50;;;3.70;;
2021;SDS011;1015;49.756;6.994;2024-02-15T01:34:14;5.13;;;3.87;;
2021;SDS011;1015;49.756;6.994;2024-02-15T01:36:41;4.33;;;3.80;;
2021;SDS011;1015;49.756;6.994;2024-02-15T01:39:08;9.03;;;4.10;;
2021;SDS011;1015;49.756;6.994;2024-02-15T01:41:36;6.50;;;3.70;;
2021;SDS011;1015;49.756;6.994;2024-02-15T01:44:03;5.43;;;3.90;;
2021;SDS011;1015;49.756;6.994;2024-02-15T01:46:32;6.37;;;4.20;;
2021;SDS011;1015;49.756;6.994;2024-02-15T01:48:59;8.60;;;3.83;;
2021;SDS011;1015;49.756;6.994;2024-02-15T01:51:26;11.27;;;3.90;;
2021;SDS011;1015;49.756;6.994;2024-02-15T01:53:53;5.60;;;3.80;;
2021;SDS011;1015;49.756;6.994;2024-02-15T01:56:21;6.77;;;3.57;;
2021;SDS011;1015;49.756;6.994;2024-02-15T01:58:51;10.70;;;3.97;;
2021;SDS011;1015;49.756;6.994;2024-02-15T02:01:18;8.37;;;4.23;;
2021;SDS011;1015;49.756;6.994;2024-02-15T02:03:47;7.33;;;4.40;;
2021;SDS011;1015;49.756;6.994;2024-02-15T02:06:14;7.10;;;4.33;;
2021;SDS011;1015;49.756;6.994;2024-02-15T02:08:41;7.60;;;4.37;;
2021;SDS011;1015;49.756;6.994;2024-02-15T02:11:08;7.00;;;4.10;;
2021;SDS011;1015;49.756;6.994;2024-02-15T02:13:35;6.80;;;4.13;;
2021;SDS011;1015;49.756;6.994;2024-02-15T02:16:04;5.23;;;3.37;;
2021;SDS011;1015;49.756;6.994;2024-02-15T02:18:50;3.67;;;3.00;;
2021;SDS011;1015;49.756;6.994;2024-02-15T02:21:17;7.43;;;4.30;;
2021;SDS011;1015;49.756;6.994;2024-02-15T02:23:44;5.20;;;4.03;;
2021;SDS011;1015;49.756;6.994;2024-02-15T02:26:16;5.77;;;3.50;;
2021;SDS011;1015;49.756;6.994;2024-02-15T02:28:43;6.10;;;4.07;;
2021;SDS011;1015;49.756;6.994;2024-02-15T02:33:59;7.57;;;4.07;;
2021;SDS011;1015;49.756;6.994;2024-02-15T02:36:26;9.47;;;4.03;;
2021;SDS011;1015;49.756;6.994;2024-02-15T02:38:54;7.23;;;4.13;;
2021;SDS011;1015;49.756;6.994;2024-02-15T02:41:26;6.00;;;3.77;;
2021;SDS011;1015;49.756;6.994;2024-02-15T02:43:54;6.43;;;4.77;;
2021;SDS011;1015;49.756;6.994;2024-02-15T02:46:22;5.80;;;4.07;;
2021;SDS011;1015;49.756;6.994;2024-02-15T02:48:49;7.50;;;3.97;;
2021;SDS011;1015;49.756;6.994;2024-02-15T02:51:16;5.50;;;4.03;;
2021;SDS011;1015;49.756;6.994;2024-02-15T02:53:46;7.90;;;4.50;;
2021;SDS011;1015;49.756;6.994;2024-02-15T02:56:14;6.90;;;3.87;;
2021;SDS011;1015;49.756;6.994;2024-02-15T02:58:42;5.50;;;4.03;;
2021;SDS011;1015;49.756;6.994;2024-02-15T03:01:09;5.90;;;4.17;;
2021;SDS011;1015;49.756;6.994;2024-02-15T03:03:36;4.80;;;4.27;;
2021;SDS011;1015;49.756;6.994;2024-02-15T03:06:04;7.03;;;3.63;;
2021;SDS011;1015;49.756;6.994;2024-02-15T03:08:32;9.03;;;4.20;;
2021;SDS011;1015;49.756;6.994;2024-02-15T03:10:59;4.60;;;3.40;;
2021;SDS011;1015;49.756;6.994;2024-02-15T03:13:26;7.50;;;3.77;;
2021;SDS011;1015;49.756;6.994;2024-02-15T03:15:55;5.50;;;3.70;;
2021;SDS011;1015;49.756;6.994;2024-02-15T03:18:22;8.00;;;3.80;;
2021;SDS011;1015;49.756;6.994;2024-02-15T03:20:49;4.13;;;3.17;;
2021;SDS011;1015;49.756;6.994;2024-02-15T03:23:16;4.83;;;3.07;;
2021;SDS011;1015;49.756;6.994;2024-02-15T03:25:43;7.90;;;3.80;;
2021;SDS011;1015;49.756;6.994;2024-02-15T03:28:10;7.20;;;3.63;;
2021;SDS011;1015;49.756;6.994;2024-02-15T03:30:37;5.90;;;3.73;;
2021;SDS011;1015;49.756;6.994;2024-02-15T03:33:06;5.73;;;4.03;;
2021;SDS011;1015;49.756;6.994;2024-02-15T03:35:33;4.97;;;3.60;;
2021;SDS011;1015;49.756;6.994;2024-02-15T03:38:00;4.50;;;3.50;;
2021;SDS011;1015;49.756;6.994;2024-02-15T03:40:27;4.43;;;3.63;;
2021;SDS011;1015;49.756;6.994;2024-02-15T03:42:55;5.53;;;3.50;;
2021;SDS011;1015;49.756;6.994;2024-02-15T03:45:22;4.67;;;3.00;;
2021;SDS011;1015;49.756;6.994;2024-02-15T03:47:50;6.20;;;3.60;;
2021;SDS011;1015;49.756;6.994;2024-02-15T03:53:05;7.93;;;3.70;;
2021;SDS011;1015;49.756;6.994;2024-02-15T03:55:32;4.30;;;3.33;;
2021;SDS011;1015;49.756;6.994;2024-02-15T03:58:01;3.87;;;3.03;;
2021;SDS011;1015;49.756;6.994;2024-02-15T04:00:28;8.33;;;3.33;;
2021;SDS011;1015;49.756;6.994;2024-02-15T04:02:55;4.83;;;3.20;;
2021;SDS011;1015;49.756;6.994;2024-02-15T04:05:22;6.23;;;3.60;;
2021;SDS011;1015;49.756;6.994;2024-02-15T04:07:49;5.23;;;3.10;;
2021;SDS011;1015;49.756;6.994;2024-02-15T04:10:19;6.30;;;3.13;;
2021;SDS011;1015;49.756;6.994;2024-02-15T04:12:46;5.87;;;3.30;;
2021;SDS011;1015;49.756;6.994;2024-02-15T04:15:13;4.23;;;3.20;;
2021;SDS011;1015;49.756;6.994;2024-02-15T04:17:42;8.90;;;3.20;;
2021;SDS011;1015;49.756;6.994;2024-02-15T04:20:10;3.30;;;3.00;;
2021;SDS011;1015;49.756;6.994;2024-02-15T04:22:39;7.20;;;3.40;;
2021;SDS011;1015;49.756;6.994;2024-02-15T04:25:08;3.83;;;2.90;;
2021;SDS011;1015;49.756;6.994;2024-02-15T04:27:37;5.40;;;3.17;;
2021;SDS011;1015;49.756;6.994;2024-02-15T04:30:04;5.80;;;2.83;;
2021;SDS011;1015;49.756;6.994;2024-02-15T04:32:34;5.10;;;3.03;;
2021;SDS011;1015;49.756;6.994;2024-02-15T04:35:01;4.93;;;3.13;;
2021;SDS011;1015;49.756;6.994;2024-02-15T04:37:30;4.43;;;2.73;;
2021;SDS011;1015;49.756;6.994;2024-02-15T04:39:59;10.00;;;3.27;;
2021;SDS011;1015;49.756;6.994;2024-02-15T04:42:33;6.40;;;3.30;;
2021;SDS011;1015;49.756;6.994;2024-02-15T04:45:05;7.10;;;3.30;;
2021;SDS011;1015;49.756;6.994;2024-02-15T04:47:34;4.67;;;3.03;;
2021;SDS011;1015;49.756;6.994;2024-02-15T04:50:02;5.10;;;2.50;;
2021;SDS011;1015;49.756;6.994;2024-02-15T04:52:31;3.33;;;3.03;;
2021;SDS011;1015;49.756;6.994;2024-02-15T04:54:58;6.00;;;2.60;;
2021;SDS011;1015;49.756;6.994;2024-02-15T04:57:25;7.33;;;2.97;;
2021;SDS011;1015;49.756;6.994;2024-02-15T04:59:53;4.83;;;3.10;;
2021;SDS011;1015;49.756;6.994;2024-02-15T05:02:21;4.80;;;3.30;;
2021;SDS011;1015;49.756;6.994;2024-02-15T05:04:49;5.33;;;3.20;;
2021;SDS011;1015;49.756;6.994;2024-02-15T05:07:20;5.50;;;3.40;;
2021;SDS011;1015;49.756;6.994;2024-02-15T05:09:47;4.40;;;3.63;;
2021;SDS011;1015;49.756;6.994;2024-02-15T05:12:21;6.27;;;3.40;;
2021;SDS011;1015;49.756;6.994;2024-02-15T05:14:49;5.23;;;3.63;;
2021;SDS011;1015;49.756;6.994;2024-02-15T05:17:16;5.60;;;4.30;;
2021;SDS011;1015;49.756;6.994;2024-02-15T05:19:45;6.67;;;4.20;;
2021;SDS011;1015;49.756;6.994;2024-02-15T05:22:12;8.80;;;4.70;;
2021;SDS011;1015;49.756;6.994;2024-02-15T05:24:40;8.23;;;5.60;;
2021;SDS011;1015;49.756;6.994;2024-02-15T05:27:07;7.60;;;5.60;;
2021;SDS011;1015;49.756;6.994;2024-02-15T05:29:34;7.03;;;5.57;;
2021;SDS011;1015;49.756;6.994;2024-02-15T05:32:02;7.60;;;6.60;;
2021;SDS011;1015;49.756;6.994;2024-02-15T05:34:29;10.03;;;6.00;;
2021;SDS011;1015;49.756;6.994;2024-02-15T05:36:57;7.73;;;6.50;;
2021;SDS011;1015;49.756;6.994;2024-02-15T05:39:24;9.13;;;6.60;;
2021;SDS011;1015;49.756;6.994;2024-02-15T05:41:51;8.67;;;6.33;;
2021;SDS011;1015;49.756;6.994;2024-02-15T05:44:18;11.13;;;6.37;;
2021;SDS011;1015;49.756;6.994;2024-02-15T05:46:46;9.63;;;6.07;;
2021;SDS011;1015;49.756;6.994;2024-02-15T05:49:13;7.90;;;5.53;;
2021;SDS011;1015;49.756;6.994;2024-02-15T05:51:42;11.13;;;6.47;;
2021;SDS011;1015;49.756;6.994;2024-02-15T05:54:11;8.43;;;6.50;;
2021;SDS011;1015;49.756;6.994;2024-02-15T05:56:38;9.97;;;6.47;;
2021;SDS011;1015;49.756;6.994;2024-02-15T05:59:06;11.70;;;6.83;;
2021;SDS011;1015;49.756;6.994;2024-02-15T06:01:36;8.67;;;6.03;;
2021;SDS011;1015;49.756;6.994;2024-02-15T06:04:03;7.40;;;6.13;;
2021;SDS011;1015;49.756;6.994;2024-02-15T06:06:33;8.33;;;6.10;;
2021;SDS011;1015;49.756;6.994;2024-02-15T06:09:00;9.30;;;6.20;;
2021;SDS011;1015;49.756;6.994;2024-02-15T06:11:29;8.80;;;6.97;;
2021;SDS011;1015;49.756;6.994;2024-02-15T06:14:15;9.13;;;6.83;;
2021;SDS011;1015;49.756;6.994;2024-02-15T06:16:42;9.90;;;6.80;;
2021;SDS011;1015;49.756;6.994;2024-02-15T06:19:10;10.03;;;6.40;;
2021;SDS011;1015;49.756;6.994;2024-02-15T06:21:37;9.43;;;6.93;;
2021;SDS011;1015;49.756;6.994;2024-02-15T06:24:04;9.23;;;6.90;;
2021;SDS011;1015;49.756;6.994;2024-02-15T06:26:33;10.37;;;6.77;;
2021;SDS011;1015;49.756;6.994;2024-02-15T06:29:00;10.77;;;6.27;;
2021;SDS011;1015;49.756;6.994;2024-02-15T06:31:50;9.10;;;5.80;;
2021;SDS011;1015;49.756;6.994;2024-02-15T06:34:35;9.10;;;5.93;;
2021;SDS011;1015;49.756;6.994;2024-02-15T06:37:35;7.07;;;5.10;;
2021;SDS011;1015;49.756;6.994;2024-02-15T06:40:20;8.00;;;4.53;;
2021;SDS011;1015;49.756;6.994;2024-02-15T06:42:49;7.97;;;5.33;;
2021;SDS011;1015;49.756;6.994;2024-02-15T06:45:16;7.70;;;4.80;;
2021;SDS011;1015;49.756;6.994;2024-02-15T06:47:44;7.70;;;5.07;;
2021;SDS011;1015;49.756;6.994;2024-02-15T06:50:12;8.23;;;5.23;;
2021;SDS011;1015;49.756;6.994;2024-02-15T06:52:39;10.57;;;5.17;;
2021;SDS011;1015;49.756;6.994;2024-02-15T06:55:07;6.97;;;5.03;;
2021;SDS011;1015;49.756;6.994;2024-02-15T06:57:36;6.10;;;4.87;;
2021;SDS011;1015;49.756;6.994;2024-02-15T07:00:09;9.20;;;5.50;;
2021;SDS011;1015;49.756;6.994;2024-02-15T07:02:40;7.37;;;5.80;;
2021;SDS011;1015;49.756;6.994;2024-02-15T07:05:09;8.17;;;4.67;;
2021;SDS011;1015;49.756;6.994;2024-02-15T07:07:36;9.20;;;5.10;;
2021;SDS011;1015;49.756;6.994;2024-02-15T07:10:08;7.10;;;5.13;;
2021;SDS011;1015;49.756;6.994;2024-02-15T07:12:35;5.63;;;4.53;;
2021;SDS011;1015;49.756;6.994;2024-02-15T07:15:03;7.80;;;4.70;;
2021;SDS011;1015;49.756;6.994;2024-02-15T07:17:33;5.83;;;4.40;;
2021;SDS011;1015;49.756;6.994;2024-02-15T07:20:02;8.23;;;5.20;;
2021;SDS011;1015;49.756;6.994;2024-02-15T07:22:30;7.37;;;4.80;;
2021;SDS011;1015;49.756;6.994;2024-02-15T07:25:03;7.30;;;4.40;;
2021;SDS011;1015;49.756;6.994;2024-02-15T07:27:31;7.23;;;4.47;;
2021;SDS011;1015;49.756;6.994;2024-02-15T07:30:00;6.00;;;4.00;;
2021;SDS011;1015;49.756;6.994;2024-02-15T07:32:28;8.43;;;3.83;;
2021;SDS011;1015;49.756;6.994;2024-02-15T07:34:57;4.90;;;3.57;;
2021;SDS011;1015;49.756;6.994;2024-02-15T07:37:24;4.23;;;3.27;;
2021;SDS011;1015;49.756;6.994;2024-02-15T07:39:52;5.00;;;3.03;;
2021;SDS011;1015;49.756;6.994;2024-02-15T07:42:19;3.77;;;3.10;;
2021;SDS011;1015;49.756;6.994;2024-02-15T07:44:48;4.20;;;2.70;;
2021;SDS011;1015;49.756;6.994;2024-02-15T07:47:17;8.43;;;3.50;;
2021;SDS011;1015;49.756;6.994;2024-02-15T07:49:48;4.43;;;2.73;;
2021;SDS011;1015;49.756;6.994;2024-02-15T07:52:17;4.17;;;2.90;;
2021;SDS011;1015;49.756;6.994;2024-02-15T07:54:44;3.90;;;2.50;;
2021;SDS011;1015;49.756;6.994;2024-02-15T07:57:11;4.90;;;2.50;;
2021;SDS011;1015;49.756;6.994;2024-02-15T07:59:39;4.70;;;2.83;;
2021;SDS011;1015;49.756;6.994;2024-02-15T08:02:07;3.20;;;2.90;;
2021;SDS011;1015;49.756;6.994;2024-02-15T08:04:34;3.13;;;2.80;;
2021;SDS011;1015;49.756;6.994;2024-02-15T08:07:05;4.37;;;3.60;;
2021;SDS011;1015;49.756;6.994;2024-02-15T08:09:37;5.80;;;2.60;;
2021;SDS011;1015;49.756;6.994;2024-02-15T08:12:04;3.17;;;2.73;;
2021;SDS011;1015;49.756;6.994;2024-02-15T08:14:31;3.60;;;3.30;;
2021;SDS011;1015;49.756;6.994;2024-02-15T08:16:58;3.93;;;2.57;;
2021;SDS011;1015;49.756;6.994;2024-02-15T08:19:26;2.97;;;2.67;;
2021;SDS011;1015;49.756;6.994;2024-02-15T08:21:54;4.47;;;3.57;;
2021;SDS011;1015;49.756;6.994;2024-02-15T08:24:21;3.50;;;2.53;;
2021;SDS011;1015;49.756;6.994;2024-02-15T08:26:49;4.80;;;2.30;;
2021;SDS011;1015;49.756;6.994;2024-02-15T08:29:17;2.60;;;2.00;;
2021;SDS011;1015;49.756;6.994;2024-02-15T08:31:44;4.83;;;2.10;;
2021;SDS011;1015;49.756;6.994;2024-02-15T08:34:14;3.30;;;1.97;;
2021;SDS011;1015;49.756;6.994;2024-02-15T08:36:43;4.80;;;2.30;;
2021;SDS011;1015;49.756;6.994;2024-02-15T08:39:12;2.83;;;2.07;;
2021;SDS011;1015;49.756;6.994;2024-02-15T08:41:41;6.50;;;3.80;;
2021;SDS011;1015;49.756;6.994;2024-02-15T08:44:10;4.00;;;2.60;;
2021;SDS011;1015;49.756;6.994;2024-02-15T08:46:40;7.83;;;7.10;;
2021;SDS011;1015;49.756;6.994;2024-02-15T08:49:07;21.03;;;16.13;;
2021;SDS011;1015;49.756;6.994;2024-02-15T08:51:37;5.37;;;4.87;;
2021;SDS011;1015;49.756;6.994;2024-02-15T08:54:04;5.23;;;2.50;;
2021;SDS011;1015;49.756;6.994;2024-02-15T08:56:31;3.40;;;1.67;;
2021;SDS011;1015;49.756;6.994;2024-02-15T08:58:58;4.43;;;2.07;;
2021;SDS011;1015;49.756;6.994;2024-02-15T09:01:27;3.53;;;2.50;;
2021;SDS011;1015;49.756;6.994;2024-02-15T09:03:55;4.00;;;3.43;;
2021;SDS011;1015;49.756;6.994;2024-02-15T09:06:22;3.63;;;2.20;;
2021;SDS011;1015;49.756;6.994;2024-02-15T09:08:49;1.87;;;1.70;;
2021;SDS011;1015;49.756;6.994;2024-02-15T09:11:16;4.77;;;2.17;;
2021;SDS011;1015;49.756;6.994;2024-02-15T09:13:44;3.13;;;2.00;;
2021;SDS011;1015;49.756;6.994;2024-02-15T09:16:11;1.93;;;1.70;;
2021;SDS011;1015;49.756;6.994;2024-02-15T09:18:40;6.60;;;5.27;;
2021;SDS011;1015;49.756;6.994;2024-02-15T09:21:10;7.97;;;6.13;;
2021;SDS011;1015;49.756;6.994;2024-02-15T09:23:37;5.33;;;3.57;;
2021;SDS011;1015;49.756;6.994;2024-02-15T09:26:05;5.57;;;4.73;;
2021;SDS011;1015;49.756;6.994;2024-02-15T09:28:35;4.67;;;3.40;;
2021;SDS011;1015;49.756;6.994;2024-02-15T09:31:02;5.90;;;3.90;;
2021;SDS011;1015;49.756;6.994;2024-02-15T09:33:29;10.97;;;7.73;;
2021;SDS011;1015;49.756;6.994;2024-02-15T09:35:57;5.27;;;4.37;;
2021;SDS011;1015;49.756;6.994;2024-02-15T09:38:24;8.80;;;5.73;;
2021;SDS011;1015;49.756;6.994;2024-02-15T09:40:51;6.50;;;4.50;;
2021;SDS011;1015;49.756;6.994;2024-02-15T09:43:19;6.10;;;3.03;;
2021;SDS011;1015;49.756;6.994;2024-02-15T09:45:46;7.60;;;4.70;;
2021;SDS011;1015;49.756;6.994;2024-02-15T09:48:13;5.03;;;2.97;;
2021;SDS011;1015;49.756;6.994;2024-02-15T09:50:43;4.77;;;3.33;;
2021;SDS011;1015;49.756;6.994;2024-02-15T09:53:13;4.00;;;3.30;;
2021;SDS011;1015;49.756;6.994;2024-02-15T09:55:40;5.60;;;3.00;;
2021;SDS011;1015;49.756;6.994;2024-02-15T09:58:07;3.13;;;2.23;;
2021;SDS011;1015;49.756;6.994;2024-02-15T10:00:35;2.60;;;1.97;;
2021;SDS011;1015;49.756;6.994;2024-02-15T10:03:02;3.17;;;2.20;;
2021;SDS011;1015;49.756;6.994;2024-02-15T10:05:30;2.40;;;1.83;;
2021;SDS011;1015;49.756;6.994;2024-02-15T10:07:57;2.73;;;2.00;;
2021;SDS011;1015;49.756;6.994;2024-02-15T10:10:27;3.67;;;2.50;;
2021;SDS011;1015;49.756;6.994;2024-02-15T10:12:55;2.10;;;1.90;;
2021;SDS011;1015;49.756;6.994;2024-02-15T10:15:30;2.70;;;1.70;;
2021;SDS011;1015;49.756;6.994;2024-02-15T10:17:58;2.90;;;2.17;;
2021;SDS011;1015;49.756;6.994;2024-02-15T10:20:25;3.00;;;1.67;;
2021;SDS011;1015;49.756;6.994;2024-02-15T10:22:53;2.50;;;1.87;;
2021;SDS011;1015;49.756;6.994;2024-02-15T10:25:21;2.80;;;1.67;;
2021;SDS011;1015;49.756;6.994;2024-02-15T10:27:50;2.00;;;1.50;;
2021;SDS011;1015;49.756;6.994;2024-02-15T10:30:17;2.83;;;1.53;;
2021;SDS011;1015;49.756;6.994;2024-02-15T10:32:45;2.30;;;1.43;;
2021;SDS011;1015;49.756;6.994;2024-02-15T10:35:19;2.93;;;1.50;;
2021;SDS011;1015;49.756;6.994;2024-02-15T10:37:47;2.80;;;1.40;;
2021;SDS011;1015;49.756;6.994;2024-02-15T10:40:17;3.00;;;1.50;;
2021;SDS011;1015;49.756;6.994;2024-02-15T10:42:47;1.33;;;1.23;;
2021;SDS011;1015;49.756;6.994;2024-02-15T10:45:16;3.20;;;1.60;;
2021;SDS011;1015;49.756;6.994;2024-02-15T10:47:44;9.80;;;1.80;;
2021;SDS011;1015;49.756;6.994;2024-02-15T10:50:12;3.70;;;1.50;;
2021;SDS011;1015;49.756;6.994;2024-02-15T10:52:43;2.50;;;1.47;;
2021;SDS011;1015;49.756;6.994;2024-02-15T10:55:12;2.93;;;1.43;;
2021;SDS011;1015;49.756;6.994;2024-02-15T10:57:39;4.30;;;1.63;;
2021;SDS011;1015;49.756;6.994;2024-02-15T11:00:11;1.87;;;1.30;;
2021;SDS011;1015;49.756;6.994;2024-02-15T11:02:49;1.80;;;1.30;;
2021;SDS011;1015;49.756;6.994;2024-02-15T11:05:18;2.70;;;1.33;;
2021;SDS011;1015;49.756;6.994;2024-02-15T11:07:48;2.20;;;1.37;;
2021;SDS011;1015;49.756;6.994;2024-02-15T11:10:16;2.27;;;1.60;;
2021;SDS011;1015;49.756;6.994;2024-02-15T11:12:43;5.10;;;1.80;;
2021;SDS011;1015;49.756;6.994;2024-02-15T11:15:11;1.60;;;1.50;;
2021;SDS011;1015;49.756;6.994;2024-02-15T11:17:45;2.43;;;1.50;;
2021;SDS011;1015;49.756;6.994;2024-02-15T11:23:02;2.80;;;1.57;;
2021;SDS011;1015;49.756;6.994;2024-02-15T11:25:31;2.63;;;1.37;;
2021;SDS011;1015;49.756;6.994;2024-02-15T11:27:59;3.23;;;1.40;;
2021;SDS011;1015;49.756;6.994;2024-02-15T11:30:47;1.77;;;1.27;;
2021;SDS011;1015;49.756;6.994;2024-02-15T11:33:27;2.30;;;1.07;;
2021;SDS011;1015;49.756;6.994;2024-02-15T11:36:01;2.57;;;1.50;;
2021;SDS011;1015;49.756;6.994;2024-02-15T11:38:31;2.00;;;1.33;;
2021;SDS011;1015;49.756;6.994;2024-02-15T11:40:59;2.47;;;1.10;;
2021;SDS011;1015;49.756;6.994;2024-02-15T11:43:45;1.60;;;1.00;;
2021;SDS011;1015;49.756;6.994;2024-02-15T11:46:14;2.23;;;1.10;;
2021;SDS011;1015;49.756;6.994;2024-02-15T11:48:42;1.90;;;1.10;;
2021;SDS011;1015;49.756;6.994;2024-02-15T11:51:11;2.53;;;1.40;;
2021;SDS011;1015;49.756;6.994;2024-02-15T11:53:59;3.33;;;1.53;;
2021;SDS011;1015;49.756;6.994;2024-02-15T11:56:26;1.60;;;1.37;;
2021;SDS011;1015;49.756;6.994;2024-02-15T11:59:01;4.47;;;2.10;;
2021;SDS011;1015;49.756;6.994;2024-02-15T12:01:31;2.40;;;1.60;;
2021;SDS011;1015;49.756;6.994;2024-02-15T12:04:16;3.23;;;2.00;;
2021;SDS011;1015;49.756;6.994;2024-02-15T12:07:00;3.90;;;1.97;;
2021;SDS011;1015;49.756;6.994;2024-02-15T12:09:46;2.13;;;1.80;;
2021;SDS011;1015;49.756;6.994;2024-02-15T12:12:31;2.60;;;2.20;;
2021;SDS011;1015;49.756;6.994;2024-02-15T12:15:15;2.83;;;1.30;;
2021;SDS011;1015;49.756;6.994;2024-02-15T12:18:13;1.43;;;1.00;;
2021;SDS011;1015;49.756;6.994;2024-02-15T12:20:58;1.60;;;1.13;;
2021;SDS011;1015;49.756;6.994;2024-02-15T12:23:25;1.63;;;1.13;;
2021;SDS011;1015;49.756;6.994;2024-02-15T12:25:53;2.90;;;1.60;;
2021;SDS011;1015;49.756;6.994;2024-02-15T12:28:21;2.90;;;1.17;;
2021;SDS011;1015;49.756;6.994;2024-02-15T12:30:48;3.30;;;1.30;;
2021;SDS011;1015;49.756;6.994;2024-02-15T12:33:21;3.97;;;1.80;;
2021;SDS011;1015;49.756;6.994;2024-02-15T12:35:48;3.90;;;2.70;;
2021;SDS011;1015;49.756;6.994;2024-02-15T12:38:16;4.30;;;2.73;;
2021;SDS011;1015;49.756;6.994;2024-02-15T12:40:43;2.27;;;1.73;;
2021;SDS011;1015;49.756;6.994;2024-02-15T12:43:12;2.50;;;1.50;;
2021;SDS011;1015;49.756;6.994;2024-02-15T12:45:39;2.97;;;1.80;;
2021;SDS011;1015;49.756;6.994;2024-02-15T12:48:07;1.53;;;1.13;;
2021;SDS011;1015;49.756;6.994;2024-02-15T12:50:35;2.70;;;1.20;;
2021;SDS011;1015;49.756;6.994;2024-02-15T12:53:03;2.50;;;1.70;;
2021;SDS011;1015;49.756;6.994;2024-02-15T12:55:31;4.40;;;1.50;;
2021;SDS011;1015;49.756;6.994;2024-02-15T12:57:59;1.30;;;1.20;;
2021;SDS011;1015;49.756;6.994;2024-02-15T13:00:30;2.30;;;1.10;;
2021;SDS011;1015;49.756;6.994;2024-02-15T13:02:58;1.20;;;1.10;;
2021;SDS011;1015;49.756;6.994;2024-02-15T13:05:28;1.10;;;1.00;;
2021;SDS011;1015;49.756;6.994;2024-02-15T13:07:55;2.13;;;1.00;;
2021;SDS011;1015;49.756;6.994;2024-02-15T13:10:23;1.20;;;1.10;;
2021;SDS011;1015;49.756;6.994;2024-02-15T13:12:51;2.27;;;1.20;;
2021;SDS011;1015;49.756;6.994;2024-02-15T13:15:20;2.33;;;1.30;;
2021;SDS011;1015;49.756;6.994;2024-02-15T13:17:53;2.60;;;1.90;;
2021;SDS011;1015;49.756;6.994;2024-02-15T13:20:21;2.03;;;1.33;;
2021;SDS011;1015;49.756;6.994;2024-02-15T13:22:57;1.97;;;1.17;;
2021;SDS011;1015;49.756;6.994;2024-02-15T13:25:27;2.40;;;1.40;;
2021;SDS011;1015;49.756;6.994;2024-02-15T13:27:54;1.63;;;1.23;;
2021;SDS011;1015;49.756;6.994;2024-02-15T13:30:21;2.57;;;1.50;;
2021;SDS011;1015;49.756;6.994;2024-02-15T13:32:53;2.03;;;1.60;;
2021;SDS011;1015;49.756;6.994;2024-02-15T13:35:20;4.37;;;1.50;;
2021;SDS011;1015;49.756;6.994;2024-02-15T13:37:49;3.07;;;1.50;;
2021;SDS011;1015;49.756;6.994;2024-02-15T13:40:17;2.30;;;1.53;;
2021;SDS011;1015;49.756;6.994;2024-02-15T13:42:48;2.10;;;1.60;;
2021;SDS011;1015;49.756;6.994;2024-02-15T13:45:17;2.93;;;1.63;;
2021;SDS011;1015;49.756;6.994;2024-02-15T13:47:45;3.00;;;1.60;;
2021;SDS011;1015;49.756;6.994;2024-02-15T13:50:14;3.40;;;1.77;;
2021;SDS011;1015;49.756;6.994;2024-02-15T13:52:42;2.13;;;1.37;;
2021;SDS011;1015;49.756;6.994;2024-02-15T13:55:09;1.47;;;1.37;;
2021;SDS011;1015;49.756;6.994;2024-02-15T13:57:37;2.10;;;1.40;;
2021;SDS011;1015;49.756;6.994;2024-02-15T14:00:05;1.60;;;1.40;;
2021;SDS011;1015;49.756;6.994;2024-02-15T14:02:38;2.60;;;1.53;;
2021;SDS011;1015;49.756;6.994;2024-02-15T14:05:05;2.30;;;1.83;;
2021;SDS011;1015;49.756;6.994;2024-02-15T14:07:34;2.17;;;1.60;;
2021;SDS011;1015;49.756;6.994;2024-02-15T14:10:02;2.13;;;1.63;;
2021;SDS011;1015;49.756;6.994;2024-02-15T14:12:29;2.70;;;1.57;;
2021;SDS011;1015;49.756;6.994;2024-02-15T14:14:56;2.30;;;1.50;;
2021;SDS011;1015;49.756;6.994;2024-02-15T14:17:23;3.53;;;2.00;;
2021;SDS011;1015;49.756;6.994;2024-02-15T14:19:50;3.85;;;3.35;;
2021;SDS011;1015;49.756;6.994;2024-02-15T14:22:26;3.70;;;2.00;;
2021;SDS011;1015;49.756;6.994;2024-02-15T14:24:55;2.38;;;1.80;;
2021;SDS011;1015;49.756;6.994;2024-02-15T14:27:22;3.42;;;1.50;;
2021;SDS011;1015;49.756;6.994;2024-02-15T14:29:49;3.17;;;1.50;;
2021;SDS011;1015;49.756;6.994;2024-02-15T14:32:34;2.50;;;1.50;;
2021;SDS011;1015;49.756;6.994;2024-02-15T14:35:19;2.23;;;1.40;;
2021;SDS011;1015;49.756;6.994;2024-02-15T14:37:46;3.05;;;1.38;;
2021;SDS011;1015;49.756;6.994;2024-02-15T14:40:21;2.50;;;1.67;;
2021;SDS011;1015;49.756;6.994;2024-02-15T14:42:48;3.35;;;1.40;;
2021;SDS011;1015;49.756;6.994;2024-02-15T14:45:15;1.83;;;1.30;;
2021;SDS011;1015;49.756;6.994;2024-02-15T14:47:42;2.03;;;1.33;;
2021;SDS011;1015;49.756;6.994;2024-02-15T14:50:09;2.80;;;1.70;;
2021;SDS011;1015;49.756;6.994;2024-02-15T14:52:38;3.90;;;1.80;;
2021;SDS011;1015;49.756;6.994;2024-02-15T14:55:06;4.40;;;1.73;;
2021;SDS011;1015;49.756;6.994;2024-02-15T14:57:34;2.70;;;1.43;;
2021;SDS011;1015;49.756;6.994;2024-02-15T15:00:03;2.17;;;1.40;;
2021;SDS011;1015;49.756;6.994;2024-02-15T15:02:31;2.53;;;1.70;;
2021;SDS011;1015;49.756;6.994;2024-02-15T15:04:58;2.13;;;1.80;;
2021;SDS011;1015;49.756;6.994;2024-02-15T15:07:39;2.70;;;1.70;;
2021;SDS011;1015;49.756;6.994;2024-02-15T15:10:24;1.80;;;1.63;;
2021;SDS011;1015;49.756;6.994;2024-02-15T15:13:10;23.93;;;9.73;;
2021;SDS011;1015;49.756;6.994;2024-02-15T15:15:38;5.50;;;2.00;;
2021;SDS011;1015;49.756;6.994;2024-02-15T15:18:05;2.53;;;1.47;;
2021;SDS011;1015;49.756;6.994;2024-02-15T15:20:34;2.33;;;1.50;;
2021;SDS011;1015;49.756;6.994;2024-02-15T15:23:02;2.30;;;1.93;;
2021;SDS011;1015;49.756;6.994;2024-02-15T15:25:29;2.33;;;1.50;;
2021;SDS011;1015;49.756;6.994;2024-02-15T15:27:56;4.53;;;1.83;;
2021;SDS011;1015;49.756;6.994;2024-02-15T15:30:25;3.13;;;1.90;;
2021;SDS011;1015;49.756;6.994;2024-02-15T15:35:20;88.53;;;68.35;;
2021;SDS011;1015;49.756;6.994;2024-02-15T15:40:15;50.75;;;45.45;;